createdAt,value
2023-05-21T00:00:53.730Z,33.83
2023-05-21T00:03:22.015Z,37.50
2023-05-21T00:05:50.264Z,36.93
2023-05-21T00:08:18.436Z,31.67
2023-05-21T00:10:46.380Z,37.00
2023-05-21T00:13:15.996Z,41.60
2023-05-21T00:15:44.284Z,38.50
2023-05-21T00:18:12.367Z,36.00
2023-05-21T00:20:41.613Z,39.50
2023-05-21T00:23:10.246Z,34.90
2023-05-21T00:25:41.462Z,55.43
2023-05-21T00:28:09.451Z,39.30
2023-05-21T00:30:39.808Z,43.63
2023-05-21T00:33:10.354Z,36.63
2023-05-21T00:35:38.396Z,39.20
2023-05-21T00:38:07.511Z,42.33
2023-05-21T00:40:36.432Z,44.33
2023-05-21T00:43:04.541Z,41.30
2023-05-21T00:45:32.561Z,41.90
2023-05-21T00:48:02.779Z,37.37
2023-05-21T00:50:31.992Z,40.43
2023-05-21T00:53:00.039Z,43.83
2023-05-21T00:55:28.143Z,42.03
2023-05-21T00:57:56.175Z,38.37
2023-05-21T01:00:26.394Z,43.37
2023-05-21T01:02:54.535Z,45.87
2023-05-21T01:05:24.120Z,44.33
2023-05-21T01:07:52.610Z,42.97
2023-05-21T01:10:20.775Z,47.90
2023-05-21T01:12:49.691Z,44.33
2023-05-21T01:15:18.100Z,43.40
2023-05-21T01:17:46.488Z,49.27
2023-05-21T01:20:18.070Z,57.97
2023-05-21T01:22:52.979Z,46.40
2023-05-21T01:25:21.730Z,46.77
2023-05-21T01:27:49.929Z,44.60
2023-05-21T01:30:19.154Z,43.30
2023-05-21T01:32:51.482Z,48.40
2023-05-21T01:35:23.675Z,47.70
2023-05-21T01:37:57.822Z,50.60
2023-05-21T01:40:32.845Z,47.10
2023-05-21T01:43:01.283Z,47.50
2023-05-21T01:45:32.364Z,42.37
2023-05-21T01:48:00.730Z,51.63
2023-05-21T01:50:31.817Z,51.03
2023-05-21T01:53:03.703Z,48.20
2023-05-21T01:55:31.709Z,52.80
2023-05-21T01:58:02.549Z,54.00
2023-05-21T02:00:32.558Z,50.25
2023-05-21T02:03:00.738Z,49.10
2023-05-21T02:05:28.877Z,48.87
2023-05-21T02:07:57.029Z,51.63
2023-05-21T02:10:26.798Z,50.07
2023-05-21T02:12:54.844Z,47.93
2023-05-21T02:15:24.887Z,57.87
2023-05-21T02:17:53.112Z,54.43
2023-05-21T02:20:22.732Z,52.67
2023-05-21T02:22:51.032Z,49.53
2023-05-21T02:25:20.688Z,50.40
2023-05-21T02:27:53.950Z,52.23
2023-05-21T02:30:22.279Z,39.50
2023-05-21T02:32:50.701Z,44.20
2023-05-21T02:35:18.860Z,44.40
2023-05-21T02:37:46.998Z,41.50
2023-05-21T02:40:15.145Z,40.93
2023-05-21T02:42:43.235Z,52.60
2023-05-21T02:45:13.579Z,43.53
2023-05-21T02:47:41.799Z,55.90
2023-05-21T02:50:10.679Z,53.87
2023-05-21T02:52:38.684Z,40.63
2023-05-21T02:55:07.740Z,54.13
2023-05-21T02:57:35.773Z,56.43
2023-05-21T03:00:05.350Z,47.47
2023-05-21T03:02:34.849Z,46.57
2023-05-21T03:05:02.951Z,45.20
2023-05-21T03:07:31.624Z,47.83
2023-05-21T03:09:59.646Z,56.70
2023-05-21T03:12:27.686Z,54.13
2023-05-21T03:14:56.323Z,55.10
2023-05-21T03:17:24.389Z,60.80
2023-05-21T03:19:54.670Z,55.60
2023-05-21T03:22:22.833Z,58.60
2023-05-21T03:24:50.878Z,55.83
2023-05-21T03:27:19.008Z,63.10
2023-05-21T03:29:46.982Z,52.97
2023-05-21T03:32:15.317Z,55.93
2023-05-21T03:34:43.559Z,44.80
2023-05-21T03:37:12.979Z,59.70
2023-05-21T03:39:40.973Z,51.30
2023-05-21T03:42:09.162Z,53.13
2023-05-21T03:44:37.295Z,61.83
2023-05-21T03:47:05.473Z,72.13
2023-05-21T03:49:33.686Z,66.63
2023-05-21T03:52:01.807Z,58.63
2023-05-21T03:54:31.221Z,60.70
2023-05-21T03:56:59.916Z,62.63
2023-05-21T03:59:28.086Z,69.53
2023-05-21T04:01:56.084Z,61.73
2023-05-21T04:04:24.105Z,60.70
2023-05-21T04:06:54.289Z,63.60
2023-05-21T04:09:22.653Z,56.00
2023-05-21T04:11:52.040Z,55.53
2023-05-21T04:14:20.187Z,58.90
2023-05-21T04:16:49.133Z,54.03
2023-05-21T04:19:17.218Z,53.83
2023-05-21T04:21:45.874Z,53.17
2023-05-21T04:24:13.914Z,55.10
2023-05-21T04:26:42.370Z,40.03
2023-05-21T04:29:11.844Z,43.53
2023-05-21T04:31:39.855Z,46.10
2023-05-21T04:34:07.924Z,45.20
2023-05-21T04:36:36.158Z,40.77
2023-05-21T04:39:06.287Z,46.50
2023-05-21T04:41:34.350Z,46.43
2023-05-21T04:44:02.331Z,51.83
2023-05-21T04:46:31.906Z,50.23
2023-05-21T04:49:03.063Z,48.23
2023-05-21T04:51:31.620Z,46.40
2023-05-21T04:53:59.684Z,52.00
2023-05-21T04:56:27.672Z,46.67
2023-05-21T04:58:55.920Z,46.37
2023-05-21T05:01:25.438Z,43.70
2023-05-21T05:03:55.085Z,51.10
2023-05-21T05:06:25.722Z,53.30
2023-05-21T05:08:53.860Z,55.70
2023-05-21T05:11:22.336Z,55.63
2023-05-21T05:13:50.677Z,50.17
2023-05-21T05:16:24.918Z,51.30
2023-05-21T05:18:54.928Z,54.00
2023-05-21T05:21:23.649Z,51.15
2023-05-21T05:23:51.662Z,49.57
2023-05-21T05:26:19.862Z,62.57
2023-05-21T05:28:47.964Z,48.40
2023-05-21T05:31:16.044Z,48.57
2023-05-21T05:33:44.102Z,48.20
2023-05-21T05:36:13.554Z,43.07
2023-05-21T05:38:41.732Z,46.13
2023-05-21T05:41:09.851Z,50.43
2023-05-21T05:43:37.829Z,39.63
2023-05-21T05:46:05.919Z,42.80
2023-05-21T05:48:34.066Z,38.77
2023-05-21T05:51:02.708Z,39.33
2023-05-21T05:53:32.344Z,38.23
2023-05-21T05:56:01.082Z,34.33
2023-05-21T05:58:30.617Z,30.93
2023-05-21T06:00:58.638Z,32.97
2023-05-21T06:03:28.140Z,30.40
2023-05-21T06:05:56.576Z,35.47
2023-05-21T06:08:24.769Z,28.70
2023-05-21T06:10:54.339Z,26.13
2023-05-21T06:13:22.375Z,27.07
2023-05-21T06:15:51.582Z,28.40
2023-05-21T06:18:19.634Z,26.20
2023-05-21T06:20:47.677Z,26.90
2023-05-21T06:23:16.023Z,23.17
2023-05-21T06:25:44.089Z,27.98
2023-05-21T06:28:13.948Z,29.63
2023-05-21T06:30:42.157Z,26.10
2023-05-21T06:33:10.266Z,26.67
2023-05-21T06:35:39.944Z,23.27
2023-05-21T06:38:07.949Z,25.63
2023-05-21T06:40:36.547Z,19.53
2023-05-21T06:43:05.239Z,21.97
2023-05-21T06:45:34.962Z,25.87
2023-05-21T06:48:03.165Z,24.20
2023-05-21T06:50:31.451Z,23.50
2023-05-21T06:52:59.515Z,23.03
2023-05-21T06:55:27.543Z,24.27
2023-05-21T06:57:55.793Z,27.57
2023-05-21T07:00:23.819Z,21.65
2023-05-21T07:02:53.361Z,21.90
2023-05-21T07:05:23.540Z,20.77
2023-05-21T07:07:51.725Z,22.02
2023-05-21T07:10:19.900Z,24.60
2023-05-21T07:12:47.934Z,22.33
2023-05-21T07:15:15.979Z,33.47
2023-05-21T07:17:44.064Z,22.33
2023-05-21T07:20:14.830Z,25.10
2023-05-21T07:22:44.858Z,20.87
2023-05-21T07:25:13.037Z,19.13
2023-05-21T07:27:41.063Z,29.00
2023-05-21T07:30:11.148Z,18.27
2023-05-21T07:32:39.308Z,20.30
2023-05-21T07:35:07.994Z,19.63
2023-05-21T07:37:37.709Z,19.67
2023-05-21T07:40:07.699Z,16.50
2023-05-21T07:42:35.997Z,19.13
2023-05-21T07:45:04.020Z,15.90
2023-05-21T07:47:32.110Z,18.27
2023-05-21T07:50:00.213Z,17.33
2023-05-21T07:52:29.121Z,18.77
2023-05-21T07:54:58.529Z,16.97
2023-05-21T07:57:28.181Z,16.70
2023-05-21T07:59:56.475Z,17.77
2023-05-21T08:02:24.661Z,13.37
2023-05-21T08:04:55.088Z,15.23
2023-05-21T08:07:23.426Z,15.93
2023-05-21T08:09:51.599Z,13.70
2023-05-21T08:12:21.123Z,16.53
2023-05-21T08:14:49.158Z,15.50
2023-05-21T08:17:17.737Z,18.33
2023-05-21T08:19:45.778Z,13.40
2023-05-21T08:22:14.098Z,15.53
2023-05-21T08:24:42.349Z,15.60
2023-05-21T08:27:10.609Z,18.13
2023-05-21T08:29:44.760Z,15.50
2023-05-21T08:32:12.883Z,24.13
2023-05-21T08:34:40.918Z,12.50
2023-05-21T08:37:08.881Z,12.83
2023-05-21T08:39:36.959Z,13.60
2023-05-21T08:42:13.170Z,15.73
2023-05-21T08:44:48.751Z,13.00
2023-05-21T08:47:19.847Z,16.63
2023-05-21T08:49:49.782Z,16.83
2023-05-21T08:52:18.350Z,21.40
2023-05-21T08:54:47.500Z,12.50
2023-05-21T08:57:16.864Z,20.40
2023-05-21T08:59:46.977Z,13.37
2023-05-21T09:02:15.427Z,14.90
2023-05-21T09:04:48.177Z,15.97
2023-05-21T09:07:17.587Z,20.10
2023-05-21T09:09:51.296Z,17.03
2023-05-21T09:12:19.449Z,15.23
2023-05-21T09:14:49.844Z,13.37
2023-05-21T09:17:18.163Z,14.63
2023-05-21T09:20:11.017Z,15.03
2023-05-21T09:22:42.471Z,16.27
2023-05-21T09:25:11.656Z,14.27
2023-05-21T09:27:40.327Z,14.87
2023-05-21T09:30:13.666Z,17.97
2023-05-21T09:32:45.645Z,19.60
2023-05-21T09:35:15.211Z,17.37
2023-05-21T09:37:45.103Z,15.63
2023-05-21T09:40:15.230Z,18.93
2023-05-21T09:42:46.497Z,14.73
2023-05-21T09:45:19.843Z,15.87
2023-05-21T09:47:49.620Z,14.13
2023-05-21T09:50:20.582Z,18.40
2023-05-21T09:52:50.316Z,17.00
2023-05-21T09:55:18.550Z,14.20
2023-05-21T09:57:49.892Z,15.87
2023-05-21T10:00:22.485Z,15.87
2023-05-21T10:02:54.872Z,22.80
2023-05-21T10:05:27.497Z,17.67
2023-05-21T10:08:00.942Z,16.17
2023-05-21T10:10:30.373Z,15.87
2023-05-21T10:13:01.550Z,15.30
2023-05-21T10:15:36.552Z,14.35
2023-05-21T10:18:06.229Z,24.35
2023-05-21T10:20:34.727Z,17.03
2023-05-21T10:23:04.096Z,13.83
2023-05-21T10:25:32.730Z,24.03
2023-05-21T10:28:00.774Z,21.43
2023-05-21T10:30:31.123Z,17.17
2023-05-21T10:33:00.872Z,16.13
2023-05-21T10:35:29.598Z,14.30
2023-05-21T10:37:58.577Z,18.00
2023-05-21T10:40:26.646Z,15.95
2023-05-21T10:43:14.976Z,17.30
2023-05-21T10:45:58.446Z,15.97
2023-05-21T10:48:41.769Z,17.30
2023-05-21T10:51:26.358Z,14.40
2023-05-21T10:54:28.943Z,13.80
2023-05-21T10:57:04.654Z,13.43
2023-05-21T10:59:41.906Z,13.85
2023-05-21T11:02:14.576Z,14.20
2023-05-21T11:04:45.638Z,14.73
2023-05-21T11:07:14.306Z,15.70
2023-05-21T11:09:42.620Z,15.73
2023-05-21T11:12:12.884Z,15.65
2023-05-21T11:14:43.545Z,15.87
2023-05-21T11:17:14.651Z,17.20
2023-05-21T11:19:43.961Z,15.63
2023-05-21T11:22:22.737Z,15.50
2023-05-21T11:24:51.726Z,16.17
2023-05-21T11:27:34.553Z,12.10
2023-05-21T11:30:06.623Z,16.20
2023-05-21T11:32:38.382Z,14.40
2023-05-21T11:35:07.676Z,12.53
2023-05-21T11:37:37.801Z,16.63
2023-05-21T11:40:23.852Z,13.13
2023-05-21T11:42:53.282Z,9.77
2023-05-21T11:45:22.291Z,11.33
2023-05-21T11:47:53.540Z,13.97
2023-05-21T11:50:21.712Z,11.02
2023-05-21T11:52:50.916Z,12.50
2023-05-21T11:55:23.520Z,12.17
2023-05-21T11:57:55.026Z,10.97
2023-05-21T12:00:23.473Z,12.77
2023-05-21T12:02:55.796Z,11.87
2023-05-21T12:05:25.088Z,10.80
2023-05-21T12:07:54.680Z,12.87
2023-05-21T12:10:23.883Z,14.97
2023-05-21T12:12:55.882Z,15.10
2023-05-21T12:15:26.374Z,11.97
2023-05-21T12:17:56.918Z,15.67
2023-05-21T12:20:27.156Z,15.63
2023-05-21T12:22:55.226Z,11.50
2023-05-21T12:25:23.510Z,15.33
2023-05-21T12:27:57.756Z,11.63
2023-05-21T12:30:26.560Z,11.00
2023-05-21T12:33:02.106Z,12.00
2023-05-21T12:35:32.087Z,19.20
2023-05-21T12:38:03.018Z,11.33
2023-05-21T12:40:38.897Z,18.10
2023-05-21T12:43:08.151Z,14.50
2023-05-21T12:45:37.120Z,12.83
2023-05-21T12:48:07.030Z,11.20
2023-05-21T12:50:36.536Z,9.73
2023-05-21T12:53:04.745Z,15.30
2023-05-21T12:55:32.972Z,10.60
2023-05-21T12:58:07.865Z,8.82
2023-05-21T13:00:36.460Z,15.70
2023-05-21T13:03:07.272Z,13.80
2023-05-21T13:05:35.999Z,11.23
2023-05-21T13:08:04.158Z,15.67
2023-05-21T13:10:43.771Z,10.80
2023-05-21T13:13:11.924Z,11.03
2023-05-21T13:15:39.986Z,12.77
2023-05-21T13:18:11.709Z,10.07
2023-05-21T13:20:39.852Z,11.63
2023-05-21T13:23:10.500Z,11.13
2023-05-21T13:25:39.754Z,11.32
2023-05-21T13:28:10.278Z,12.30
2023-05-21T13:30:38.535Z,11.53
2023-05-21T13:33:09.052Z,14.90
2023-05-21T13:35:37.594Z,10.10
2023-05-21T13:38:05.658Z,11.07
2023-05-21T13:40:34.718Z,14.80
2023-05-21T13:43:04.030Z,15.67
2023-05-21T13:45:32.020Z,14.40
2023-05-21T13:48:00.024Z,12.37
2023-05-21T13:50:29.513Z,14.10
2023-05-21T13:52:57.565Z,11.13
2023-05-21T13:55:25.590Z,11.23
2023-05-21T13:57:53.696Z,11.67
2023-05-21T14:00:21.814Z,9.30
2023-05-21T14:02:50.174Z,11.40
2023-05-21T14:05:18.654Z,10.90
2023-05-21T14:07:48.327Z,13.10
2023-05-21T14:10:16.933Z,12.00
2023-05-21T14:12:46.009Z,9.80
2023-05-21T14:15:14.047Z,10.93
2023-05-21T14:17:42.436Z,8.85
2023-05-21T14:20:11.666Z,11.20
2023-05-21T14:22:40.013Z,19.33
2023-05-21T14:25:10.297Z,12.50
2023-05-21T14:27:39.190Z,13.17
2023-05-21T14:30:08.342Z,10.60
2023-05-21T14:32:36.515Z,11.80
2023-05-21T14:35:06.068Z,7.87
2023-05-21T14:37:34.057Z,9.77
2023-05-21T14:40:02.069Z,10.87
2023-05-21T14:42:32.099Z,12.53
2023-05-21T14:45:16.863Z,10.93
2023-05-21T14:47:47.629Z,9.93
2023-05-21T14:50:17.352Z,13.32
2023-05-21T14:52:45.657Z,12.27
2023-05-21T14:55:16.401Z,11.00
2023-05-21T14:57:45.910Z,10.40
2023-05-21T15:00:14.629Z,10.83
2023-05-21T15:02:42.933Z,15.10
2023-05-21T15:05:11.192Z,20.67
2023-05-21T15:07:39.205Z,10.73
2023-05-21T15:10:08.796Z,12.07
2023-05-21T15:12:37.043Z,12.17
2023-05-21T15:15:07.545Z,12.27
2023-05-21T15:17:36.079Z,11.67
2023-05-21T15:20:04.823Z,9.47
2023-05-21T15:22:33.225Z,11.80
2023-05-21T15:25:04.068Z,15.57
2023-05-21T15:27:32.193Z,13.00
2023-05-21T15:30:00.461Z,11.83
2023-05-21T15:32:29.880Z,12.70
2023-05-21T15:34:58.025Z,13.97
2023-05-21T15:37:26.159Z,10.83
2023-05-21T15:39:54.264Z,14.93
2023-05-21T15:42:22.547Z,11.67
2023-05-21T15:44:50.639Z,10.63
2023-05-21T15:47:18.995Z,13.30
2023-05-21T15:49:48.384Z,18.53
2023-05-21T15:52:16.976Z,13.90
2023-05-21T15:54:44.984Z,12.83
2023-05-21T15:57:13.005Z,18.20
2023-05-21T15:59:41.011Z,17.58
2023-05-21T16:02:09.591Z,11.33
2023-05-21T16:04:37.955Z,13.60
2023-05-21T16:07:07.537Z,12.40
2023-05-21T16:09:37.608Z,18.20
2023-05-21T16:12:06.237Z,11.60
2023-05-21T16:14:34.332Z,15.50
2023-05-21T16:17:02.418Z,16.23
2023-05-21T16:19:30.631Z,16.00
2023-05-21T16:21:58.918Z,15.33
2023-05-21T16:24:28.374Z,10.40
2023-05-21T16:26:56.445Z,75.57
2023-05-21T16:29:24.515Z,12.60
2023-05-21T16:31:52.663Z,11.80
2023-05-21T16:34:20.686Z,14.53
2023-05-21T16:36:48.726Z,13.00
2023-05-21T16:39:16.782Z,10.83
2023-05-21T16:41:46.170Z,11.03
2023-05-21T16:44:14.282Z,14.33
2023-05-21T16:46:42.437Z,17.83
2023-05-21T16:49:10.499Z,24.67
2023-05-21T16:51:38.655Z,20.10
2023-05-21T16:54:09.781Z,23.67
2023-05-21T16:56:37.937Z,19.10
2023-05-21T16:59:07.473Z,16.80
2023-05-21T17:01:35.581Z,10.37
2023-05-21T17:04:03.885Z,8.77
2023-05-21T17:06:33.834Z,14.53
2023-05-21T17:09:03.669Z,40.60
2023-05-21T17:11:32.801Z,69.67
2023-05-21T17:14:00.832Z,29.93
2023-05-21T17:16:31.068Z,22.93
2023-05-21T17:18:59.776Z,28.63
2023-05-21T17:21:28.610Z,31.17
2023-05-21T17:23:56.587Z,16.20
2023-05-21T17:26:24.685Z,21.00
2023-05-21T17:28:52.737Z,22.93
2023-05-21T17:31:24.021Z,24.43
2023-05-21T17:33:53.651Z,31.13
2023-05-21T17:36:21.888Z,19.25
2023-05-21T17:38:50.979Z,42.72
2023-05-21T17:41:19.848Z,27.97
2023-05-21T17:43:47.939Z,21.10
2023-05-21T17:46:17.842Z,15.10
2023-05-21T17:48:46.407Z,17.80
2023-05-21T17:51:15.861Z,12.07
2023-05-21T17:53:43.899Z,16.83
2023-05-21T17:56:12.261Z,26.67
2023-05-21T17:58:40.280Z,22.67
2023-05-21T18:01:08.410Z,19.27
2023-05-21T18:03:36.528Z,19.17
2023-05-21T18:06:06.407Z,24.47
2023-05-21T18:08:36.846Z,24.25
2023-05-21T18:11:05.291Z,15.03
2023-05-21T18:13:33.295Z,19.70
2023-05-21T18:16:01.343Z,13.27
2023-05-21T18:18:29.348Z,15.43
2023-05-21T18:20:57.484Z,25.33
2023-05-21T18:23:27.847Z,17.73
2023-05-21T18:25:58.221Z,45.70
2023-05-21T18:28:27.436Z,23.90
2023-05-21T18:30:55.645Z,14.70
2023-05-21T18:33:23.778Z,14.20
2023-05-21T18:35:51.985Z,15.03
2023-05-21T18:38:20.027Z,13.77
2023-05-21T18:40:48.135Z,13.53
2023-05-21T18:43:18.038Z,15.73
2023-05-21T18:45:46.084Z,15.00
2023-05-21T18:48:14.243Z,23.98
2023-05-21T18:50:42.614Z,19.70
2023-05-21T18:53:11.650Z,14.90
2023-05-21T18:55:39.749Z,13.00
2023-05-21T18:58:08.092Z,13.73
2023-05-21T19:00:39.428Z,13.33
2023-05-21T19:03:07.659Z,13.33
2023-05-21T19:05:35.796Z,14.87
2023-05-21T19:08:03.968Z,12.77
2023-05-21T19:10:32.409Z,16.73
2023-05-21T19:13:00.873Z,14.33
2023-05-21T19:15:29.008Z,16.07
2023-05-21T19:17:58.423Z,16.80
2023-05-21T19:20:27.409Z,13.83
2023-05-21T19:22:55.553Z,13.60
2023-05-21T19:25:23.873Z,14.20
2023-05-21T19:27:52.733Z,12.97
2023-05-21T19:30:20.894Z,17.97
2023-05-21T19:32:49.041Z,15.70
2023-05-21T19:35:18.853Z,19.10
2023-05-21T19:37:46.873Z,18.73
2023-05-21T19:40:17.674Z,13.47
2023-05-21T19:42:46.061Z,13.30
2023-05-21T19:45:15.500Z,12.90
2023-05-21T19:47:44.056Z,15.93
2023-05-21T19:50:12.693Z,12.60
2023-05-21T19:52:42.262Z,14.93
2023-05-21T19:55:10.790Z,12.50
2023-05-21T19:57:39.764Z,14.10
2023-05-21T20:00:10.308Z,15.53
2023-05-21T20:02:38.435Z,17.27
2023-05-21T20:05:07.249Z,14.50
2023-05-21T20:07:35.298Z,20.97
2023-05-21T20:10:04.901Z,14.93
2023-05-21T20:12:32.943Z,16.27
2023-05-21T20:15:01.144Z,17.33
2023-05-21T20:17:30.411Z,28.63
2023-05-21T20:20:00.354Z,15.47
2023-05-21T20:22:28.378Z,20.80
2023-05-21T20:24:56.421Z,17.53
2023-05-21T20:27:26.124Z,19.97
2023-05-21T20:29:54.128Z,18.30
2023-05-21T20:32:22.118Z,24.37
2023-05-21T20:35:02.286Z,17.10
2023-05-21T20:37:32.355Z,15.53
2023-05-21T20:40:00.409Z,22.93
2023-05-21T20:42:34.577Z,14.27
2023-05-21T20:45:03.099Z,15.70
2023-05-21T20:47:31.237Z,13.97
2023-05-21T20:50:02.857Z,15.87
2023-05-21T20:52:31.025Z,18.83
2023-05-21T20:55:00.025Z,16.90
2023-05-21T20:57:29.688Z,17.33
2023-05-21T20:59:57.725Z,12.90
2023-05-21T21:02:25.841Z,15.07
2023-05-21T21:04:53.982Z,16.73
2023-05-21T21:07:22.326Z,14.68
2023-05-21T21:09:50.744Z,12.10
2023-05-21T21:12:25.437Z,15.30
2023-05-21T21:14:56.422Z,12.35
2023-05-21T21:17:24.597Z,14.70
2023-05-21T21:19:52.574Z,11.73
2023-05-21T21:22:20.925Z,15.70
2023-05-21T21:24:49.268Z,14.20
2023-05-21T21:27:17.264Z,12.70
2023-05-21T21:29:46.689Z,13.73
2023-05-21T21:32:16.082Z,11.83
2023-05-21T21:34:46.895Z,12.73
2023-05-21T21:37:16.287Z,16.17
2023-05-21T21:39:44.496Z,15.07
2023-05-21T21:42:12.747Z,14.70
2023-05-21T21:44:40.925Z,12.80
2023-05-21T21:47:09.104Z,15.00
2023-05-21T21:49:38.417Z,13.40
2023-05-21T21:52:07.165Z,16.83
2023-05-21T21:54:35.208Z,16.83
2023-05-21T21:57:03.625Z,24.13
2023-05-21T21:59:31.655Z,15.13
2023-05-21T22:01:59.695Z,16.73
2023-05-21T22:04:27.747Z,18.50
2023-05-21T22:06:57.110Z,25.37
2023-05-21T22:09:25.166Z,13.43
2023-05-21T22:11:53.482Z,14.53
2023-05-21T22:14:21.480Z,19.80
2023-05-21T22:16:49.581Z,16.50
2023-05-21T22:19:20.489Z,15.17
2023-05-21T22:21:48.788Z,14.17
2023-05-21T22:24:31.381Z,14.00
2023-05-21T22:27:00.489Z,16.67
2023-05-21T22:29:28.547Z,17.57
2023-05-21T22:31:56.609Z,14.50
2023-05-21T22:34:25.229Z,15.47
2023-05-21T22:36:53.305Z,15.50
2023-05-21T22:39:22.772Z,21.27
2023-05-21T22:41:51.041Z,19.63
2023-05-21T22:44:19.125Z,17.57
2023-05-21T22:46:47.536Z,16.70
2023-05-21T22:49:16.371Z,17.90
2023-05-21T22:51:44.899Z,16.67
2023-05-21T22:54:12.967Z,18.43
2023-05-21T22:56:42.312Z,17.87
2023-05-21T22:59:10.316Z,18.23
2023-05-21T23:01:38.756Z,18.43
2023-05-21T23:04:06.964Z,21.80
2023-05-21T23:06:34.989Z,14.20
2023-05-21T23:09:02.938Z,15.90
2023-05-21T23:11:30.985Z,15.15
2023-05-21T23:14:00.507Z,16.60
2023-05-21T23:16:30.739Z,20.93
2023-05-21T23:18:58.910Z,19.93
2023-05-21T23:21:27.018Z,18.20
2023-05-21T23:23:55.440Z,16.67
2023-05-21T23:26:25.515Z,22.33
2023-05-21T23:28:53.520Z,17.37
2023-05-21T23:31:23.036Z,22.50
2023-05-21T23:33:51.682Z,15.17
2023-05-21T23:36:19.991Z,16.50
2023-05-21T23:38:48.003Z,21.97
2023-05-21T23:41:16.115Z,17.73
2023-05-21T23:43:44.123Z,18.63
2023-05-21T23:46:12.393Z,18.97
2023-05-21T23:48:41.794Z,18.80
2023-05-21T23:51:09.885Z,18.33
2023-05-21T23:53:38.327Z,21.83
2023-05-21T23:56:07.021Z,18.70
2023-05-21T23:58:35.388Z,22.80
